sensor_id;sensor_type;location;lat;lon;timestamp;temperature;humidity
67974;DHT22;54756;51.140;6.952;2024-01-11T00:00:30;-4.30;99.90
67974;DHT22;54756;51.140;6.952;2024-01-11T00:02:30;-4.40;99.90
67974;DHT22;54756;51.140;6.952;2024-01-11T00:04:31;-4.40;99.90
67974;DHT22;54756;51.140;6.952;2024-01-11T00:06:31;-4.40;99.90
67974;DHT22;54756;51.140;6.952;2024-01-11T00:08:32;-4.40;99.90
67974;DHT22;54756;51.140;6.952;2024-01-11T00:10:33;-4.40;99.90
67974;DHT22;54756;51.140;6.952;2024-01-11T00:12:33;-4.40;99.90
67974;DHT22;54756;51.140;6.952;2024-01-11T00:14:34;-4.40;99.90
67974;DHT22;54756;51.140;6.952;2024-01-11T00:16:35;-4.40;99.90
67974;DHT22;54756;51.140;6.952;2024-01-11T00:18:36;-4.40;99.90
67974;DHT22;54756;51.140;6.952;2024-01-11T00:20:36;-4.40;99.90
67974;DHT22;54756;51.140;6.952;2024-01-11T00:22:37;-4.40;99.90
67974;DHT22;54756;51.140;6.952;2024-01-11T00:24:37;-4.40;99.90
67974;DHT22;54756;51.140;6.952;2024-01-11T00:26:38;-4.40;99.90
67974;DHT22;54756;51.140;6.952;2024-01-11T00:28:38;-4.40;99.90
67974;DHT22;54756;51.140;6.952;2024-01-11T00:30:39;-4.40;99.90
67974;DHT22;54756;51.140;6.952;2024-01-11T00:32:40;-4.40;99.90
67974;DHT22;54756;51.140;6.952;2024-01-11T00:34:40;-4.50;99.90
67974;DHT22;54756;51.140;6.952;2024-01-11T00:36:41;-4.50;99.90
67974;DHT22;54756;51.140;6.952;2024-01-11T00:38:41;-4.50;99.90
67974;DHT22;54756;51.140;6.952;2024-01-11T00:40:42;-4.50;99.90
67974;DHT22;54756;51.140;6.952;2024-01-11T00:42:42;-4.60;99.90
67974;DHT22;54756;51.140;6.952;2024-01-11T00:44:43;-4.60;99.90
67974;DHT22;54756;51.140;6.952;2024-01-11T00:46:45;-4.50;99.90
67974;DHT22;54756;51.140;6.952;2024-01-11T00:48:45;-4.50;99.90
67974;DHT22;54756;51.140;6.952;2024-01-11T00:50:46;-4.60;99.90
67974;DHT22;54756;51.140;6.952;2024-01-11T00:52:47;-4.50;99.90
67974;DHT22;54756;51.140;6.952;2024-01-11T00:54:47;-4.50;99.90
67974;DHT22;54756;51.140;6.952;2024-01-11T00:56:48;-4.60;99.90
67974;DHT22;54756;51.140;6.952;2024-01-11T00:58:48;-4.60;99.90
67974;DHT22;54756;51.140;6.952;2024-01-11T01:00:49;-4.60;99.90
67974;DHT22;54756;51.140;6.952;2024-01-11T01:02:50;-4.60;99.90
67974;DHT22;54756;51.140;6.952;2024-01-11T01:04:50;-4.60;99.90
67974;DHT22;54756;51.140;6.952;2024-01-11T01:06:51;-4.60;99.90
67974;DHT22;54756;51.140;6.952;2024-01-11T01:08:51;-4.60;99.90
67974;DHT22;54756;51.140;6.952;2024-01-11T01:10:52;-4.60;99.90
67974;DHT22;54756;51.140;6.952;2024-01-11T01:12:52;-4.60;99.90
67974;DHT22;54756;51.140;6.952;2024-01-11T01:14:53;-4.60;99.90
67974;DHT22;54756;51.140;6.952;2024-01-11T01:16:54;-4.60;99.90
67974;DHT22;54756;51.140;6.952;2024-01-11T01:18:54;-4.60;99.90
67974;DHT22;54756;51.140;6.952;2024-01-11T01:20:55;-4.60;99.90
67974;DHT22;54756;51.140;6.952;2024-01-11T01:22:56;-4.70;99.90
67974;DHT22;54756;51.140;6.952;2024-01-11T01:24:57;-4.60;99.90
67974;DHT22;54756;51.140;6.952;2024-01-11T01:26:58;-4.70;99.90
67974;DHT22;54756;51.140;6.952;2024-01-11T01:28:58;-4.70;99.90
67974;DHT22;54756;51.140;6.952;2024-01-11T01:30:59;-4.70;99.90
67974;DHT22;54756;51.140;6.952;2024-01-11T01:32:59;-4.70;99.90
67974;DHT22;54756;51.140;6.952;2024-01-11T01:35:00;-4.70;99.90
67974;DHT22;54756;51.140;6.952;2024-01-11T01:37:00;-4.70;99.90
67974;DHT22;54756;51.140;6.952;2024-01-11T01:39:01;-4.70;99.90
67974;DHT22;54756;51.140;6.952;2024-01-11T01:41:02;-4.80;99.90
67974;DHT22;54756;51.140;6.952;2024-01-11T01:43:06;-4.80;99.90
67974;DHT22;54756;51.140;6.952;2024-01-11T01:45:09;-4.80;99.90
67974;DHT22;54756;51.140;6.952;2024-01-11T01:47:10;-4.80;99.90
67974;DHT22;54756;51.140;6.952;2024-01-11T01:49:12;-4.80;99.90
67974;DHT22;54756;51.140;6.952;2024-01-11T01:51:12;-4.80;99.90
67974;DHT22;54756;51.140;6.952;2024-01-11T01:53:14;-4.80;99.90
67974;DHT22;54756;51.140;6.952;2024-01-11T01:55:15;-4.80;99.90
67974;DHT22;54756;51.140;6.952;2024-01-11T01:57:16;-4.80;99.90
67974;DHT22;54756;51.140;6.952;2024-01-11T01:59:19;-4.80;99.90
67974;DHT22;54756;51.140;6.952;2024-01-11T02:01:20;-4.80;99.90
67974;DHT22;54756;51.140;6.952;2024-01-11T02:03:24;-4.90;99.90
67974;DHT22;54756;51.140;6.952;2024-01-11T02:05:27;-4.90;99.90
67974;DHT22;54756;51.140;6.952;2024-01-11T02:07:28;-4.90;99.90
67974;DHT22;54756;51.140;6.952;2024-01-11T02:09:30;-4.90;99.90
67974;DHT22;54756;51.140;6.952;2024-01-11T02:11:30;-4.90;99.90
67974;DHT22;54756;51.140;6.952;2024-01-11T02:13:32;-4.90;99.90
67974;DHT22;54756;51.140;6.952;2024-01-11T02:15:32;-4.90;99.90
67974;DHT22;54756;51.140;6.952;2024-01-11T02:17:33;-4.90;99.90
67974;DHT22;54756;51.140;6.952;2024-01-11T02:19:34;-4.90;99.90
67974;DHT22;54756;51.140;6.952;2024-01-11T02:21:35;-4.90;99.90
67974;DHT22;54756;51.140;6.952;2024-01-11T02:23:42;-4.90;99.90
67974;DHT22;54756;51.140;6.952;2024-01-11T02:25:45;-4.90;99.90
67974;DHT22;54756;51.140;6.952;2024-01-11T02:27:47;-4.90;99.90
67974;DHT22;54756;51.140;6.952;2024-01-11T02:29:48;-4.90;99.90
67974;DHT22;54756;51.140;6.952;2024-01-11T02:31:49;-4.90;99.90
67974;DHT22;54756;51.140;6.952;2024-01-11T02:33:51;-4.90;99.90
67974;DHT22;54756;51.140;6.952;2024-01-11T02:35:52;-4.90;99.90
67974;DHT22;54756;51.140;6.952;2024-01-11T02:37:53;-4.90;99.90
67974;DHT22;54756;51.140;6.952;2024-01-11T02:39:54;-4.90;99.90
67974;DHT22;54756;51.140;6.952;2024-01-11T02:41:56;-5.00;99.90
67974;DHT22;54756;51.140;6.952;2024-01-11T02:43:57;-5.00;99.90
67974;DHT22;54756;51.140;6.952;2024-01-11T02:45:58;-5.00;99.90
67974;DHT22;54756;51.140;6.952;2024-01-11T02:47:59;-5.00;99.90
67974;DHT22;54756;51.140;6.952;2024-01-11T02:50:00;-5.00;99.90
67974;DHT22;54756;51.140;6.952;2024-01-11T02:52:00;-5.00;99.90
67974;DHT22;54756;51.140;6.952;2024-01-11T02:54:01;-5.00;99.90
67974;DHT22;54756;51.140;6.952;2024-01-11T02:56:02;-5.00;99.90
67974;DHT22;54756;51.140;6.952;2024-01-11T02:58:02;-5.00;99.90
67974;DHT22;54756;51.140;6.952;2024-01-11T03:00:03;-5.00;99.90
67974;DHT22;54756;51.140;6.952;2024-01-11T03:02:04;-5.00;99.90
67974;DHT22;54756;51.140;6.952;2024-01-11T03:04:05;-5.00;99.90
67974;DHT22;54756;51.140;6.952;2024-01-11T03:06:06;-5.00;99.90
67974;DHT22;54756;51.140;6.952;2024-01-11T03:08:06;-5.00;99.90
67974;DHT22;54756;51.140;6.952;2024-01-11T03:10:07;-5.00;99.90
67974;DHT22;54756;51.140;6.952;2024-01-11T03:12:07;-5.00;99.90
67974;DHT22;54756;51.140;6.952;2024-01-11T03:14:08;-5.00;99.90
67974;DHT22;54756;51.140;6.952;2024-01-11T03:16:08;-5.00;99.90
67974;DHT22;54756;51.140;6.952;2024-01-11T03:18:09;-5.00;99.90
67974;DHT22;54756;51.140;6.952;2024-01-11T03:20:10;-5.10;99.90
67974;DHT22;54756;51.140;6.952;2024-01-11T03:22:12;-5.10;99.90
67974;DHT22;54756;51.140;6.952;2024-01-11T03:24:13;-5.10;99.90
67974;DHT22;54756;51.140;6.952;2024-01-11T03:26:17;-5.10;99.90
67974;DHT22;54756;51.140;6.952;2024-01-11T03:28:18;-5.10;99.90
67974;DHT22;54756;51.140;6.952;2024-01-11T03:30:18;-5.10;99.90
67974;DHT22;54756;51.140;6.952;2024-01-11T03:32:19;-5.10;99.90
67974;DHT22;54756;51.140;6.952;2024-01-11T03:34:19;-5.10;99.90
67974;DHT22;54756;51.140;6.952;2024-01-11T03:36:23;-5.10;99.90
67974;DHT22;54756;51.140;6.952;2024-01-11T03:38:24;-5.20;99.90
67974;DHT22;54756;51.140;6.952;2024-01-11T03:40:24;-5.20;99.90
67974;DHT22;54756;51.140;6.952;2024-01-11T03:42:25;-5.20;99.90
67974;DHT22;54756;51.140;6.952;2024-01-11T03:44:25;-5.20;99.90
67974;DHT22;54756;51.140;6.952;2024-01-11T03:46:26;-5.20;99.90
67974;DHT22;54756;51.140;6.952;2024-01-11T03:48:27;-5.20;99.90
67974;DHT22;54756;51.140;6.952;2024-01-11T03:50:27;-5.20;99.90
67974;DHT22;54756;51.140;6.952;2024-01-11T03:52:28;-5.20;99.90
67974;DHT22;54756;51.140;6.952;2024-01-11T03:54:28;-5.20;99.90
67974;DHT22;54756;51.140;6.952;2024-01-11T03:56:29;-5.20;99.90
67974;DHT22;54756;51.140;6.952;2024-01-11T03:58:29;-5.20;99.90
67974;DHT22;54756;51.140;6.952;2024-01-11T04:00:30;-5.20;99.90
67974;DHT22;54756;51.140;6.952;2024-01-11T04:02:31;-5.20;99.90
67974;DHT22;54756;51.140;6.952;2024-01-11T04:04:31;-5.30;99.90
67974;DHT22;54756;51.140;6.952;2024-01-11T04:06:33;-5.30;99.90
67974;DHT22;54756;51.140;6.952;2024-01-11T04:08:33;-5.30;99.90
67974;DHT22;54756;51.140;6.952;2024-01-11T04:10:34;-5.30;99.90
67974;DHT22;54756;51.140;6.952;2024-01-11T04:12:35;-5.30;99.90
67974;DHT22;54756;51.140;6.952;2024-01-11T04:14:39;-5.30;99.90
67974;DHT22;54756;51.140;6.952;2024-01-11T04:16:41;-5.30;99.90
67974;DHT22;54756;51.140;6.952;2024-01-11T04:18:42;-5.30;99.90
67974;DHT22;54756;51.140;6.952;2024-01-11T04:20:42;-5.20;99.90
67974;DHT22;54756;51.140;6.952;2024-01-11T04:22:43;-5.10;99.90
67974;DHT22;54756;51.140;6.952;2024-01-11T04:24:43;-5.00;99.90
67974;DHT22;54756;51.140;6.952;2024-01-11T04:26:44;-5.00;99.90
67974;DHT22;54756;51.140;6.952;2024-01-11T04:28:45;-5.00;99.90
67974;DHT22;54756;51.140;6.952;2024-01-11T04:30:46;-5.10;99.90
67974;DHT22;54756;51.140;6.952;2024-01-11T04:32:47;-5.10;99.90
67974;DHT22;54756;51.140;6.952;2024-01-11T04:34:47;-5.10;99.90
67974;DHT22;54756;51.140;6.952;2024-01-11T04:36:48;-5.20;99.90
67974;DHT22;54756;51.140;6.952;2024-01-11T04:38:48;-5.20;99.90
67974;DHT22;54756;51.140;6.952;2024-01-11T04:40:49;-5.20;99.90
67974;DHT22;54756;51.140;6.952;2024-01-11T04:42:49;-5.30;99.90
67974;DHT22;54756;51.140;6.952;2024-01-11T04:44:50;-5.30;99.90
67974;DHT22;54756;51.140;6.952;2024-01-11T04:46:50;-5.30;99.90
67974;DHT22;54756;51.140;6.952;2024-01-11T04:48:51;-5.40;99.90
67974;DHT22;54756;51.140;6.952;2024-01-11T04:50:52;-5.40;99.90
67974;DHT22;54756;51.140;6.952;2024-01-11T04:52:53;-5.40;99.90
67974;DHT22;54756;51.140;6.952;2024-01-11T04:54:53;-5.40;99.90
67974;DHT22;54756;51.140;6.952;2024-01-11T04:56:54;-5.40;99.90
67974;DHT22;54756;51.140;6.952;2024-01-11T04:58:54;-5.40;99.90
67974;DHT22;54756;51.140;6.952;2024-01-11T05:00:55;-5.40;99.90
67974;DHT22;54756;51.140;6.952;2024-01-11T05:02:55;-5.40;99.90
67974;DHT22;54756;51.140;6.952;2024-01-11T05:04:56;-5.50;99.90
67974;DHT22;54756;51.140;6.952;2024-01-11T05:06:56;-5.40;99.90
67974;DHT22;54756;51.140;6.952;2024-01-11T05:08:57;-5.50;99.90
67974;DHT22;54756;51.140;6.952;2024-01-11T05:10:57;-5.50;99.90
67974;DHT22;54756;51.140;6.952;2024-01-11T05:12:58;-5.50;99.90
67974;DHT22;54756;51.140;6.952;2024-01-11T05:14:59;-5.50;99.90
67974;DHT22;54756;51.140;6.952;2024-01-11T05:16:59;-5.40;99.90
67974;DHT22;54756;51.140;6.952;2024-01-11T05:19:01;-5.30;99.90
67974;DHT22;54756;51.140;6.952;2024-01-11T05:21:01;-5.20;99.90
67974;DHT22;54756;51.140;6.952;2024-01-11T05:23:02;-5.20;99.90
67974;DHT22;54756;51.140;6.952;2024-01-11T05:25:02;-5.20;99.90
67974;DHT22;54756;51.140;6.952;2024-01-11T05:27:03;-5.20;99.90
67974;DHT22;54756;51.140;6.952;2024-01-11T05:29:04;-5.30;99.90
67974;DHT22;54756;51.140;6.952;2024-01-11T05:31:09;-5.30;99.90
67974;DHT22;54756;51.140;6.952;2024-01-11T05:33:10;-5.40;99.90
67974;DHT22;54756;51.140;6.952;2024-01-11T05:35:10;-5.40;99.90
67974;DHT22;54756;51.140;6.952;2024-01-11T05:37:11;-5.40;99.90
67974;DHT22;54756;51.140;6.952;2024-01-11T05:39:11;-5.50;99.90
67974;DHT22;54756;51.140;6.952;2024-01-11T05:41:12;-5.50;99.90
67974;DHT22;54756;51.140;6.952;2024-01-11T05:43:12;-5.50;99.90
67974;DHT22;54756;51.140;6.952;2024-01-11T05:45:13;-5.60;99.90
67974;DHT22;54756;51.140;6.952;2024-01-11T05:47:17;-5.60;99.90
67974;DHT22;54756;51.140;6.952;2024-01-11T05:49:17;-5.60;99.90
67974;DHT22;54756;51.140;6.952;2024-01-11T05:51:18;-5.60;99.90
67974;DHT22;54756;51.140;6.952;2024-01-11T05:53:18;-5.60;99.90
67974;DHT22;54756;51.140;6.952;2024-01-11T05:55:21;-5.60;99.90
67974;DHT22;54756;51.140;6.952;2024-01-11T05:57:22;-5.60;99.90
67974;DHT22;54756;51.140;6.952;2024-01-11T05:59:23;-5.70;99.90
67974;DHT22;54756;51.140;6.952;2024-01-11T06:01:24;-5.70;99.90
67974;DHT22;54756;51.140;6.952;2024-01-11T06:03:24;-5.70;99.90
67974;DHT22;54756;51.140;6.952;2024-01-11T06:05:25;-5.70;99.90
67974;DHT22;54756;51.140;6.952;2024-01-11T06:07:26;-5.70;99.90
67974;DHT22;54756;51.140;6.952;2024-01-11T06:09:26;-5.70;99.90
67974;DHT22;54756;51.140;6.952;2024-01-11T06:11:27;-5.70;99.90
67974;DHT22;54756;51.140;6.952;2024-01-11T06:13:28;-5.80;99.90
67974;DHT22;54756;51.140;6.952;2024-01-11T06:15:29;-5.80;99.90
67974;DHT22;54756;51.140;6.952;2024-01-11T06:17:29;-5.80;99.90
67974;DHT22;54756;51.140;6.952;2024-01-11T06:19:30;-5.80;99.90
67974;DHT22;54756;51.140;6.952;2024-01-11T06:21:30;-5.80;99.90
67974;DHT22;54756;51.140;6.952;2024-01-11T06:23:31;-5.80;99.90
67974;DHT22;54756;51.140;6.952;2024-01-11T06:25:31;-5.90;99.90
67974;DHT22;54756;51.140;6.952;2024-01-11T06:27:32;-5.80;99.90
67974;DHT22;54756;51.140;6.952;2024-01-11T06:29:33;-5.90;99.90
67974;DHT22;54756;51.140;6.952;2024-01-11T06:31:33;-5.90;99.90
67974;DHT22;54756;51.140;6.952;2024-01-11T06:33:34;-5.90;99.90
67974;DHT22;54756;51.140;6.952;2024-01-11T06:35:37;-5.90;99.90
67974;DHT22;54756;51.140;6.952;2024-01-11T06:37:37;-5.90;99.90
67974;DHT22;54756;51.140;6.952;2024-01-11T06:39:38;-5.90;99.90
67974;DHT22;54756;51.140;6.952;2024-01-11T06:41:38;-5.90;99.90
67974;DHT22;54756;51.140;6.952;2024-01-11T06:43:39;-5.90;99.90
67974;DHT22;54756;51.140;6.952;2024-01-11T06:45:42;-5.90;99.90
67974;DHT22;54756;51.140;6.952;2024-01-11T06:47:43;-5.90;99.90
67974;DHT22;54756;51.140;6.952;2024-01-11T06:49:45;-5.90;99.90
67974;DHT22;54756;51.140;6.952;2024-01-11T06:51:46;-5.90;99.90
67974;DHT22;54756;51.140;6.952;2024-01-11T06:53:46;-5.90;99.90
67974;DHT22;54756;51.140;6.952;2024-01-11T06:55:47;-5.90;99.90
67974;DHT22;54756;51.140;6.952;2024-01-11T06:57:48;-5.90;99.90
67974;DHT22;54756;51.140;6.952;2024-01-11T06:59:48;-5.90;99.90
67974;DHT22;54756;51.140;6.952;2024-01-11T07:01:51;-5.90;99.90
67974;DHT22;54756;51.140;6.952;2024-01-11T07:03:51;-5.90;99.90
67974;DHT22;54756;51.140;6.952;2024-01-11T07:05:52;-5.90;99.90
67974;DHT22;54756;51.140;6.952;2024-01-11T07:07:52;-5.90;99.90
67974;DHT22;54756;51.140;6.952;2024-01-11T07:09:53;-5.90;99.90
67974;DHT22;54756;51.140;6.952;2024-01-11T07:11:55;-5.90;99.90
67974;DHT22;54756;51.140;6.952;2024-01-11T07:13:56;-5.90;99.90
67974;DHT22;54756;51.140;6.952;2024-01-11T07:15:57;-5.90;99.90
67974;DHT22;54756;51.140;6.952;2024-01-11T07:17:58;-5.90;99.90
67974;DHT22;54756;51.140;6.952;2024-01-11T07:19:59;-5.90;99.90
67974;DHT22;54756;51.140;6.952;2024-01-11T07:21:59;-6.00;99.90
67974;DHT22;54756;51.140;6.952;2024-01-11T07:24:00;-6.00;99.90
67974;DHT22;54756;51.140;6.952;2024-01-11T07:26:00;-6.00;99.90
67974;DHT22;54756;51.140;6.952;2024-01-11T07:28:01;-6.00;99.90
67974;DHT22;54756;51.140;6.952;2024-01-11T07:30:02;-6.00;99.90
67974;DHT22;54756;51.140;6.952;2024-01-11T07:32:03;-6.00;99.90
67974;DHT22;54756;51.140;6.952;2024-01-11T07:34:04;-6.00;99.90
67974;DHT22;54756;51.140;6.952;2024-01-11T07:36:06;-6.00;99.90
67974;DHT22;54756;51.140;6.952;2024-01-11T07:38:06;-6.00;99.90
67974;DHT22;54756;51.140;6.952;2024-01-11T07:40:07;-6.00;99.90
67974;DHT22;54756;51.140;6.952;2024-01-11T07:42:11;-6.00;99.90
67974;DHT22;54756;51.140;6.952;2024-01-11T07:44:11;-6.00;99.90
67974;DHT22;54756;51.140;6.952;2024-01-11T07:46:12;-6.00;99.90
67974;DHT22;54756;51.140;6.952;2024-01-11T07:48:12;-6.00;99.90
67974;DHT22;54756;51.140;6.952;2024-01-11T07:50:13;-6.00;99.90
67974;DHT22;54756;51.140;6.952;2024-01-11T07:52:14;-6.00;99.90
67974;DHT22;54756;51.140;6.952;2024-01-11T07:54:14;-6.00;99.90
67974;DHT22;54756;51.140;6.952;2024-01-11T07:56:15;-6.00;99.90
67974;DHT22;54756;51.140;6.952;2024-01-11T07:58:16;-6.00;99.90
67974;DHT22;54756;51.140;6.952;2024-01-11T08:00:16;-6.00;99.90
67974;DHT22;54756;51.140;6.952;2024-01-11T08:02:17;-6.00;99.90
67974;DHT22;54756;51.140;6.952;2024-01-11T08:04:17;-6.00;99.90
67974;DHT22;54756;51.140;6.952;2024-01-11T08:06:18;-6.00;99.90
67974;DHT22;54756;51.140;6.952;2024-01-11T08:08:19;-6.00;99.90
67974;DHT22;54756;51.140;6.952;2024-01-11T08:10:19;-6.00;99.90
67974;DHT22;54756;51.140;6.952;2024-01-11T08:12:20;-5.90;99.90
67974;DHT22;54756;51.140;6.952;2024-01-11T08:14:21;-5.90;99.90
67974;DHT22;54756;51.140;6.952;2024-01-11T08:16:21;-5.90;99.90
67974;DHT22;54756;51.140;6.952;2024-01-11T08:18:22;-5.90;99.90
67974;DHT22;54756;51.140;6.952;2024-01-11T08:20:22;-5.90;99.90
67974;DHT22;54756;51.140;6.952;2024-01-11T08:22:23;-5.90;99.90
67974;DHT22;54756;51.140;6.952;2024-01-11T08:24:24;-5.90;99.90
67974;DHT22;54756;51.140;6.952;2024-01-11T08:26:25;-5.80;99.90
67974;DHT22;54756;51.140;6.952;2024-01-11T08:28:25;-5.80;99.90
67974;DHT22;54756;51.140;6.952;2024-01-11T08:30:26;-5.80;99.90
67974;DHT22;54756;51.140;6.952;2024-01-11T08:32:27;-5.80;99.90
67974;DHT22;54756;51.140;6.952;2024-01-11T08:34:27;-5.80;99.90
67974;DHT22;54756;51.140;6.952;2024-01-11T08:36:31;-5.80;99.90
67974;DHT22;54756;51.140;6.952;2024-01-11T08:38:34;-5.80;99.90
67974;DHT22;54756;51.140;6.952;2024-01-11T08:40:36;-5.70;99.90
67974;DHT22;54756;51.140;6.952;2024-01-11T08:42:37;-5.70;99.90
67974;DHT22;54756;51.140;6.952;2024-01-11T08:44:42;-5.70;99.90
67974;DHT22;54756;51.140;6.952;2024-01-11T08:46:42;-5.70;99.90
67974;DHT22;54756;51.140;6.952;2024-01-11T08:48:44;-5.60;99.90
67974;DHT22;54756;51.140;6.952;2024-01-11T08:50:44;-5.60;99.90
67974;DHT22;54756;51.140;6.952;2024-01-11T08:52:45;-5.60;99.90
67974;DHT22;54756;51.140;6.952;2024-01-11T08:54:46;-5.60;99.90
67974;DHT22;54756;51.140;6.952;2024-01-11T08:56:47;-5.50;99.90
67974;DHT22;54756;51.140;6.952;2024-01-11T08:58:48;-5.40;99.90
67974;DHT22;54756;51.140;6.952;2024-01-11T09:00:48;-5.40;99.90
67974;DHT22;54756;51.140;6.952;2024-01-11T09:02:49;-5.30;99.90
67974;DHT22;54756;51.140;6.952;2024-01-11T09:04:49;-5.30;99.90
67974;DHT22;54756;51.140;6.952;2024-01-11T09:06:50;-5.30;99.90
67974;DHT22;54756;51.140;6.952;2024-01-11T09:08:51;-5.30;99.90
67974;DHT22;54756;51.140;6.952;2024-01-11T09:10:52;-5.20;99.90
67974;DHT22;54756;51.140;6.952;2024-01-11T09:12:53;-5.20;99.90
67974;DHT22;54756;51.140;6.952;2024-01-11T09:14:54;-5.20;99.90
67974;DHT22;54756;51.140;6.952;2024-01-11T09:16:55;-5.10;99.90
67974;DHT22;54756;51.140;6.952;2024-01-11T09:18:56;-5.10;99.90
67974;DHT22;54756;51.140;6.952;2024-01-11T09:20:56;-5.10;99.90
67974;DHT22;54756;51.140;6.952;2024-01-11T09:22:57;-5.00;99.90
67974;DHT22;54756;51.140;6.952;2024-01-11T09:24:58;-5.00;99.90
67974;DHT22;54756;51.140;6.952;2024-01-11T09:26:58;-4.90;99.90
67974;DHT22;54756;51.140;6.952;2024-01-11T09:28:59;-4.90;99.90
67974;DHT22;54756;51.140;6.952;2024-01-11T09:30:59;-4.80;99.90
67974;DHT22;54756;51.140;6.952;2024-01-11T09:33:00;-4.80;99.90
67974;DHT22;54756;51.140;6.952;2024-01-11T09:35:02;-4.70;99.90
67974;DHT22;54756;51.140;6.952;2024-01-11T09:37:03;-4.70;99.90
67974;DHT22;54756;51.140;6.952;2024-01-11T09:39:04;-4.70;99.90
67974;DHT22;54756;51.140;6.952;2024-01-11T09:41:12;-4.70;99.90
67974;DHT22;54756;51.140;6.952;2024-01-11T09:43:14;-4.60;99.90
67974;DHT22;54756;51.140;6.952;2024-01-11T09:45:16;-4.60;99.90
67974;DHT22;54756;51.140;6.952;2024-01-11T09:47:18;-4.50;99.90
67974;DHT22;54756;51.140;6.952;2024-01-11T09:49:22;-4.50;99.90
67974;DHT22;54756;51.140;6.952;2024-01-11T09:51:23;-4.50;99.90
67974;DHT22;54756;51.140;6.952;2024-01-11T09:53:26;-4.50;99.90
67974;DHT22;54756;51.140;6.952;2024-01-11T09:55:28;-4.40;99.90
67974;DHT22;54756;51.140;6.952;2024-01-11T09:57:30;-4.40;99.90
67974;DHT22;54756;51.140;6.952;2024-01-11T09:59:33;-4.40;99.90
67974;DHT22;54756;51.140;6.952;2024-01-11T10:01:36;-4.30;99.90
67974;DHT22;54756;51.140;6.952;2024-01-11T10:03:41;-4.30;99.90
67974;DHT22;54756;51.140;6.952;2024-01-11T10:05:49;-4.30;99.90
67974;DHT22;54756;51.140;6.952;2024-01-11T10:07:51;-4.20;99.90
67974;DHT22;54756;51.140;6.952;2024-01-11T10:09:54;-4.20;99.90
67974;DHT22;54756;51.140;6.952;2024-01-11T10:11:55;-4.20;99.90
67974;DHT22;54756;51.140;6.952;2024-01-11T10:13:59;-4.20;99.90
67974;DHT22;54756;51.140;6.952;2024-01-11T10:16:10;-4.10;99.90
67974;DHT22;54756;51.140;6.952;2024-01-11T10:18:13;-4.10;99.90
67974;DHT22;54756;51.140;6.952;2024-01-11T10:20:14;-4.10;99.90
67974;DHT22;54756;51.140;6.952;2024-01-11T10:22:15;-4.00;99.90
67974;DHT22;54756;51.140;6.952;2024-01-11T10:24:21;-4.00;99.90
67974;DHT22;54756;51.140;6.952;2024-01-11T10:26:23;-4.00;99.90
67974;DHT22;54756;51.140;6.952;2024-01-11T10:28:27;-4.00;99.90
67974;DHT22;54756;51.140;6.952;2024-01-11T10:30:28;-3.90;99.90
67974;DHT22;54756;51.140;6.952;2024-01-11T10:32:29;-3.90;99.90
67974;DHT22;54756;51.140;6.952;2024-01-11T10:34:29;-3.90;99.90
67974;DHT22;54756;51.140;6.952;2024-01-11T10:36:33;-3.80;99.90
67974;DHT22;54756;51.140;6.952;2024-01-11T10:38:38;-3.80;99.90
67974;DHT22;54756;51.140;6.952;2024-01-11T10:40:40;-3.80;99.90
67974;DHT22;54756;51.140;6.952;2024-01-11T10:42:42;-3.70;99.90
67974;DHT22;54756;51.140;6.952;2024-01-11T10:44:46;-3.70;99.90
67974;DHT22;54756;51.140;6.952;2024-01-11T10:46:49;-3.70;99.90
67974;DHT22;54756;51.140;6.952;2024-01-11T10:48:55;-3.70;99.90
67974;DHT22;54756;51.140;6.952;2024-01-11T10:50:59;-3.60;99.90
67974;DHT22;54756;51.140;6.952;2024-01-11T10:53:02;-3.60;99.90
67974;DHT22;54756;51.140;6.952;2024-01-11T10:55:04;-3.60;99.90
67974;DHT22;54756;51.140;6.952;2024-01-11T10:57:05;-3.50;99.90
67974;DHT22;54756;51.140;6.952;2024-01-11T10:59:08;-3.50;99.90
67974;DHT22;54756;51.140;6.952;2024-01-11T11:01:10;-3.40;99.90
67974;DHT22;54756;51.140;6.952;2024-01-11T11:03:11;-3.40;99.90
67974;DHT22;54756;51.140;6.952;2024-01-11T11:05:13;-3.40;99.90
67974;DHT22;54756;51.140;6.952;2024-01-11T11:07:15;-3.30;99.90
67974;DHT22;54756;51.140;6.952;2024-01-11T11:09:17;-3.30;99.90
67974;DHT22;54756;51.140;6.952;2024-01-11T11:11:19;-3.20;99.90
67974;DHT22;54756;51.140;6.952;2024-01-11T11:13:20;-3.20;99.90
67974;DHT22;54756;51.140;6.952;2024-01-11T11:15:22;-3.20;99.90
67974;DHT22;54756;51.140;6.952;2024-01-11T11:17:23;-3.10;99.90
67974;DHT22;54756;51.140;6.952;2024-01-11T11:19:24;-3.10;99.90
67974;DHT22;54756;51.140;6.952;2024-01-11T11:21:25;-3.10;99.90
67974;DHT22;54756;51.140;6.952;2024-01-11T11:23:27;-3.10;99.90
67974;DHT22;54756;51.140;6.952;2024-01-11T11:25:29;-3.00;99.90
67974;DHT22;54756;51.140;6.952;2024-01-11T11:27:30;-3.00;99.90
67974;DHT22;54756;51.140;6.952;2024-01-11T11:29:30;-3.00;99.90
67974;DHT22;54756;51.140;6.952;2024-01-11T11:31:39;-3.00;99.90
67974;DHT22;54756;51.140;6.952;2024-01-11T11:33:41;-2.90;99.90
67974;DHT22;54756;51.140;6.952;2024-01-11T11:35:42;-2.90;99.90
67974;DHT22;54756;51.140;6.952;2024-01-11T11:37:43;-2.90;99.90
67974;DHT22;54756;51.140;6.952;2024-01-11T11:39:44;-2.90;99.90
67974;DHT22;54756;51.140;6.952;2024-01-11T11:41:45;-2.80;99.90
67974;DHT22;54756;51.140;6.952;2024-01-11T11:43:48;-2.80;99.90
67974;DHT22;54756;51.140;6.952;2024-01-11T11:45:49;-2.80;99.90
67974;DHT22;54756;51.140;6.952;2024-01-11T11:47:50;-2.80;99.90
67974;DHT22;54756;51.140;6.952;2024-01-11T11:49:58;-2.80;99.90
67974;DHT22;54756;51.140;6.952;2024-01-11T11:52:00;-2.80;99.90
67974;DHT22;54756;51.140;6.952;2024-01-11T11:54:01;-2.80;99.90
67974;DHT22;54756;51.140;6.952;2024-01-11T11:56:03;-2.70;99.90
67974;DHT22;54756;51.140;6.952;2024-01-11T11:58:04;-2.70;99.90
67974;DHT22;54756;51.140;6.952;2024-01-11T12:00:05;-2.70;99.90
67974;DHT22;54756;51.140;6.952;2024-01-11T12:02:11;-2.60;99.90
67974;DHT22;54756;51.140;6.952;2024-01-11T12:04:16;-2.60;99.90
67974;DHT22;54756;51.140;6.952;2024-01-11T12:06:21;-2.60;99.90
67974;DHT22;54756;51.140;6.952;2024-01-11T12:08:27;-2.60;99.90
67974;DHT22;54756;51.140;6.952;2024-01-11T12:10:28;-2.50;99.90
67974;DHT22;54756;51.140;6.952;2024-01-11T12:12:28;-2.50;99.90
67974;DHT22;54756;51.140;6.952;2024-01-11T12:14:29;-2.50;99.90
67974;DHT22;54756;51.140;6.952;2024-01-11T12:16:29;-2.40;99.90
67974;DHT22;54756;51.140;6.952;2024-01-11T12:18:30;-2.40;99.90
67974;DHT22;54756;51.140;6.952;2024-01-11T12:20:30;-2.30;99.90
67974;DHT22;54756;51.140;6.952;2024-01-11T12:22:31;-2.30;99.90
67974;DHT22;54756;51.140;6.952;2024-01-11T12:24:32;-2.20;99.90
67974;DHT22;54756;51.140;6.952;2024-01-11T12:26:33;-2.20;99.90
67974;DHT22;54756;51.140;6.952;2024-01-11T12:28:34;-2.20;99.90
67974;DHT22;54756;51.140;6.952;2024-01-11T12:30:35;-2.10;99.90
67974;DHT22;54756;51.140;6.952;2024-01-11T12:32:35;-2.10;99.90
67974;DHT22;54756;51.140;6.952;2024-01-11T12:34:36;-2.00;99.90
67974;DHT22;54756;51.140;6.952;2024-01-11T12:36:38;-2.00;99.90
67974;DHT22;54756;51.140;6.952;2024-01-11T12:38:46;-1.90;99.90
67974;DHT22;54756;51.140;6.952;2024-01-11T12:40:48;-1.90;99.90
67974;DHT22;54756;51.140;6.952;2024-01-11T12:42:50;-1.90;99.90
67974;DHT22;54756;51.140;6.952;2024-01-11T12:44:50;-1.90;99.90